Time;durP1;ratioP1;P1;durP2;ratioP2;P2;SDS_P1;SDS_P2;PMS_P1;PMS_P2;Temp;Humidity;BMP_temperature;BMP_pressure;BME280_temperature;BME280_humidity;BME280_pressure;Samples;Min_cycle;Max_cycle;Signal;HPM_P1;HPM_P2
2022/04/24 00:01:40;;;;;;;30.37;28.27;;;11.70;54.10;;;;;;5034157;28;20279;-84
2022/04/24 00:04:05;;;;;;;31.30;28.90;;;11.70;53.90;;;;;;5016107;28;20204;-84
2022/04/24 00:06:34;;;;;;;29.60;27.30;;;11.70;54.10;;;;;;5016326;28;20180;-85
2022/04/24 00:09:00;;;;;;;29.83;27.83;;;11.70;54.50;;;;;;5032771;28;20641;-84
2022/04/24 00:11:26;;;;;;;28.43;26.53;;;11.70;53.80;;;;;;5032369;28;20419;-83
2022/04/24 00:13:51;;;;;;;35.67;33.27;;;11.70;53.90;;;;;;5033732;28;20176;-84
2022/04/24 00:16:17;;;;;;;31.03;28.73;;;11.70;54.00;;;;;;5032621;28;20191;-83
2022/04/24 00:18:43;;;;;;;29.57;27.67;;;11.70;53.70;;;;;;5032480;28;20206;-85
2022/04/24 00:21:09;;;;;;;29.77;27.77;;;11.80;53.70;;;;;;5032412;28;20279;-85
2022/04/24 00:23:34;;;;;;;29.33;27.50;;;11.70;53.40;;;;;;5015472;28;20459;-84
2022/04/24 00:26:01;;;;;;;30.13;28.10;;;11.70;53.30;;;;;;5032659;28;20176;-84
2022/04/24 00:28:27;;;;;;;29.93;27.80;;;11.80;53.80;;;;;;5032069;28;20516;-83
2022/04/24 00:30:52;;;;;;;29.67;27.73;;;11.80;53.60;;;;;;5015765;28;20411;-84
2022/04/24 00:33:18;;;;;;;29.10;26.77;;;11.80;53.60;;;;;;5032375;28;20930;-83
2022/04/24 00:35:44;;;;;;;30.53;28.40;;;11.70;52.90;;;;;;5031562;28;20184;-84
2022/04/24 00:38:10;;;;;;;28.87;26.93;;;11.80;53.40;;;;;;5032038;28;20181;-84
2022/04/24 00:40:35;;;;;;;28.40;26.50;;;11.80;53.00;;;;;;5031751;28;20830;-84
2022/04/24 00:43:01;;;;;;;34.33;32.23;;;11.80;53.00;;;;;;5015914;28;20223;-83
2022/04/24 00:45:27;;;;;;;26.53;24.70;;;11.70;52.90;;;;;;5030548;28;20177;-84
2022/04/24 00:47:53;;;;;;;27.53;25.67;;;11.80;53.00;;;;;;5031668;28;20498;-84
2022/04/24 00:50:19;;;;;;;29.10;26.90;;;11.80;53.00;;;;;;5031689;28;20420;-83
2022/04/24 00:52:46;;;;;;;27.63;25.97;;;11.80;52.70;;;;;;5033137;28;20437;-84
2022/04/24 00:55:12;;;;;;;26.97;25.43;;;11.80;52.30;;;;;;5031228;28;20176;-84
2022/04/24 00:57:37;;;;;;;28.50;26.47;;;11.80;52.40;;;;;;5031456;28;20418;-84
2022/04/24 01:00:04;;;;;;;28.17;26.37;;;11.90;52.40;;;;;;5031610;28;20635;-84
2022/04/24 01:02:30;;;;;;;28.33;26.53;;;11.80;52.60;;;;;;5031487;28;20187;-84
2022/04/24 01:04:57;;;;;;;28.97;26.77;;;11.80;52.40;;;;;;5015375;28;20407;-84
2022/04/24 01:07:23;;;;;;;27.03;25.33;;;11.70;52.80;;;;;;5031815;28;20188;-85
2022/04/24 01:09:49;;;;;;;27.67;25.60;;;11.80;52.10;;;;;;5030097;28;20562;-84
2022/04/24 01:12:14;;;;;;;29.00;27.10;;;11.80;52.00;;;;;;5031681;28;20521;-83
2022/04/24 01:14:40;;;;;;;29.03;27.03;;;11.90;52.50;;;;;;5031340;28;20230;-84
2022/04/24 01:17:06;;;;;;;29.10;27.07;;;11.70;52.20;;;;;;5031516;28;20180;-84
2022/04/24 01:19:32;;;;;;;27.63;25.80;;;11.70;52.50;;;;;;5031277;28;20551;-84
2022/04/24 01:21:58;;;;;;;29.13;27.10;;;11.60;52.10;;;;;;5031232;28;20427;-83
2022/04/24 01:24:25;;;;;;;28.10;26.10;;;11.70;52.90;;;;;;5031138;28;20502;-84
2022/04/24 01:26:52;;;;;;;29.83;27.70;;;11.90;52.40;;;;;;5031165;28;20419;-83
2022/04/24 01:29:18;;;;;;;29.50;27.30;;;11.80;52.20;;;;;;5031641;28;20423;-84
2022/04/24 01:31:45;;;;;;;29.03;27.07;;;11.80;52.60;;;;;;5030509;28;20474;-84
2022/04/24 01:34:11;;;;;;;28.23;26.17;;;11.90;53.00;;;;;;5030712;28;20431;-84
2022/04/24 01:36:37;;;;;;;26.67;24.97;;;11.90;53.10;;;;;;5030838;28;20455;-83
2022/04/24 01:39:04;;;;;;;27.40;25.70;;;11.90;52.60;;;;;;5031244;28;20927;-82
2022/04/24 01:41:31;;;;;;;27.93;26.07;;;11.90;51.80;;;;;;5031020;28;20633;-83
2022/04/24 01:43:57;;;;;;;33.93;31.63;;;12.00;51.40;;;;;;5030269;28;20544;-84
2022/04/24 01:46:23;;;;;;;29.20;27.10;;;11.90;51.60;;;;;;5030691;28;20830;-85
2022/04/24 01:48:49;;;;;;;29.73;27.93;;;11.90;51.70;;;;;;5030652;28;20415;-85
2022/04/24 01:51:16;;;;;;;29.37;27.00;;;11.90;51.60;;;;;;5030556;28;20506;-84
2022/04/24 01:53:42;;;;;;;30.10;28.13;;;11.80;52.20;;;;;;5030717;28;20184;-84
2022/04/24 01:56:09;;;;;;;28.00;26.20;;;11.80;52.20;;;;;;5029744;28;20550;-84
2022/04/24 01:58:36;;;;;;;29.10;26.90;;;11.80;51.80;;;;;;5030318;28;20419;-84
2022/04/24 02:01:02;;;;;;;28.30;26.50;;;11.70;51.90;;;;;;5030726;28;20830;-84
2022/04/24 02:03:29;;;;;;;31.30;28.67;;;11.70;52.50;;;;;;5030437;28;20471;-84
2022/04/24 02:05:55;;;;;;;27.63;26.03;;;11.60;52.80;;;;;;5030711;28;20751;-83
2022/04/24 02:08:21;;;;;;;28.47;26.53;;;11.70;52.30;;;;;;5030557;28;20416;-83
2022/04/24 02:10:47;;;;;;;29.83;27.77;;;11.80;53.00;;;;;;5030223;28;20423;-83
2022/04/24 02:13:12;;;;;;;29.00;26.90;;;11.70;52.90;;;;;;5030696;28;20595;-83
2022/04/24 02:15:38;;;;;;;27.80;25.93;;;11.80;53.00;;;;;;5030248;28;20506;-83
2022/04/24 02:18:04;;;;;;;29.60;27.60;;;11.90;53.10;;;;;;5029807;28;20187;-84
2022/04/24 02:20:30;;;;;;;28.67;26.83;;;11.90;53.10;;;;;;5030201;28;20435;-85
2022/04/24 02:22:57;;;;;;;29.33;27.33;;;11.80;53.00;;;;;;5030400;28;20467;-84
2022/04/24 02:25:27;;;;;;;29.67;27.77;;;11.80;53.70;;;;;;5030276;28;20191;-84
2022/04/24 02:27:54;;;;;;;33.30;31.10;;;11.70;54.50;;;;;;5013699;28;20411;-85
2022/04/24 02:30:24;;;;;;;36.63;34.23;;;11.70;55.20;;;;;;5031316;28;20418;-84
2022/04/24 02:32:49;;;;;;;27.90;25.70;;;11.70;55.40;;;;;;5029667;28;20423;-84
2022/04/24 02:35:15;;;;;;;28.07;26.03;;;11.70;56.20;;;;;;5013381;28;20428;-84
2022/04/24 02:37:42;;;;;;;29.07;26.97;;;11.60;56.60;;;;;;5029961;28;20184;-85
2022/04/24 02:40:09;;;;;;;27.80;26.00;;;11.70;57.20;;;;;;5029969;28;20185;-84
2022/04/24 02:42:39;;;;;;;29.40;27.17;;;11.60;58.50;;;;;;5029855;28;20426;-83
2022/04/24 02:45:09;;;;;;;27.77;25.80;;;11.60;60.40;;;;;;5030090;28;20423;-83
2022/04/24 02:47:38;;;;;;;28.17;26.30;;;11.60;62.50;;;;;;5030109;28;20427;-83
2022/04/24 02:50:04;;;;;;;27.30;25.40;;;11.50;63.50;;;;;;5030014;28;21165;-83
2022/04/24 02:52:30;;;;;;;28.30;26.50;;;11.40;63.70;;;;;;5029155;28;20412;-84
2022/04/24 02:54:55;;;;;;;33.93;31.73;;;11.50;63.40;;;;;;5029835;28;20420;-84
2022/04/24 02:57:21;;;;;;;28.43;26.40;;;11.40;64.20;;;;;;5029202;28;20594;-84
2022/04/24 02:59:50;;;;;;;34.17;31.97;;;11.30;65.20;;;;;;5012886;28;20169;-84
2022/04/24 03:02:18;;;;;;;27.27;25.37;;;11.40;64.10;;;;;;5028802;28;20176;-83
2022/04/24 03:04:48;;;;;;;34.30;31.90;;;11.30;66.30;;;;;;5028359;28;20427;-84
2022/04/24 03:07:14;;;;;;;34.70;32.10;;;11.20;67.80;;;;;;5028784;28;20423;-84
2022/04/24 03:09:41;;;;;;;32.90;30.70;;;11.10;69.50;;;;;;5028686;28;20411;-84
2022/04/24 03:12:07;;;;;;;34.97;32.27;;;11.00;70.80;;;;;;5029419;28;20179;-84
2022/04/24 03:14:33;;;;;;;34.23;31.87;;;11.00;71.30;;;;;;5029180;28;20778;-84
2022/04/24 03:16:58;;;;;;;32.50;30.20;;;11.00;71.20;;;;;;5029701;28;20419;-84
2022/04/24 03:19:24;;;;;;;33.17;30.70;;;11.00;70.60;;;;;;5029413;28;20271;-83
2022/04/24 03:21:49;;;;;;;32.67;30.37;;;11.00;70.50;;;;;;5012957;28;20295;-84
2022/04/24 03:24:15;;;;;;;32.57;30.33;;;11.00;70.90;;;;;;5029715;28;20219;-84
2022/04/24 03:26:41;;;;;;;33.33;30.83;;;11.00;71.30;;;;;;5029879;28;20176;-84
2022/04/24 03:29:06;;;;;;;33.30;30.90;;;11.00;71.60;;;;;;5029586;28;20645;-84
2022/04/24 03:31:32;;;;;;;34.77;32.30;;;11.00;71.30;;;;;;5029449;28;20222;-85
2022/04/24 03:33:58;;;;;;;33.57;31.37;;;11.00;72.10;;;;;;5029805;28;20625;-84
2022/04/24 03:36:25;;;;;;;31.77;29.63;;;10.90;72.00;;;;;;5029827;28;20184;-84
2022/04/24 03:38:50;;;;;;;34.43;31.93;;;10.90;72.70;;;;;;5030096;28;20451;-83
2022/04/24 03:41:16;;;;;;;34.20;31.70;;;10.90;73.50;;;;;;5030241;28;20508;-84
2022/04/24 03:43:42;;;;;;;34.13;31.53;;;10.90;75.00;;;;;;5030441;28;20676;-83
2022/04/24 03:46:07;;;;;;;32.90;30.60;;;11.00;74.90;;;;;;5031775;28;20204;-84
2022/04/24 03:48:34;;;;;;;33.20;30.73;;;11.00;74.70;;;;;;5030612;28;20307;-83
2022/04/24 03:51:00;;;;;;;31.97;29.70;;;11.00;74.60;;;;;;5030665;28;20263;-83
2022/04/24 03:53:25;;;;;;;32.13;29.83;;;11.00;74.50;;;;;;5030151;28;20530;-83
2022/04/24 03:55:51;;;;;;;31.77;29.47;;;11.10;73.20;;;;;;5030748;28;20419;-84
2022/04/24 03:58:16;;;;;;;31.83;29.63;;;11.20;71.20;;;;;;5031599;28;20212;-84
2022/04/24 04:00:42;;;;;;;33.07;30.83;;;11.10;71.50;;;;;;5031349;28;20696;-84
2022/04/24 04:03:08;;;;;;;31.30;29.13;;;11.20;70.60;;;;;;5031863;28;20254;-83
2022/04/24 04:05:37;;;;;;;32.17;29.93;;;11.10;71.30;;;;;;5030793;28;20553;-84
2022/04/24 04:08:04;;;;;;;31.50;29.30;;;11.10;71.30;;;;;;5030778;28;20415;-84
2022/04/24 04:10:30;;;;;;;30.73;28.53;;;11.00;71.90;;;;;;5030373;28;20514;-83
2022/04/24 04:12:55;;;;;;;32.77;30.37;;;11.00;72.10;;;;;;5031184;28;20892;-75
2022/04/24 04:15:21;;;;;;;31.00;28.80;;;11.00;72.20;;;;;;5030292;28;20546;-75
2022/04/24 04:17:47;;;;;;;34.07;31.73;;;10.90;72.50;;;;;;5030610;28;20736;-75
2022/04/24 04:20:13;;;;;;;30.97;28.90;;;10.90;72.10;;;;;;5033735;28;20188;-75
2022/04/24 04:22:52;;;;;;;32.67;30.40;;;10.90;73.20;;;;;;5033675;28;20760;-75
2022/04/24 04:25:19;;;;;;;32.23;29.93;;;10.80;74.90;;;;;;5032304;28;20589;-75
2022/04/24 04:27:45;;;;;;;32.77;30.20;;;10.80;77.80;;;;;;5033741;28;20423;-77
2022/04/24 04:30:11;;;;;;;32.90;30.40;;;10.80;78.90;;;;;;5030755;28;20930;-76
2022/04/24 04:32:37;;;;;;;33.80;31.17;;;10.90;80.10;;;;;;5016845;28;20426;-76
2022/04/24 04:35:04;;;;;;;34.23;31.67;;;11.00;78.70;;;;;;5033163;28;21160;-75
2022/04/24 04:37:31;;;;;;;33.80;31.00;;;11.00;79.00;;;;;;5033156;28;20222;-75
2022/04/24 04:39:57;;;;;;;36.37;33.57;;;11.10;77.90;;;;;;5032650;28;20941;-76
2022/04/24 04:42:23;;;;;;;34.20;30.77;;;11.20;77.00;;;;;;5033581;28;20419;-76
2022/04/24 04:44:48;;;;;;;31.07;28.27;;;11.20;79.10;;;;;;5033404;28;20423;-76
2022/04/24 04:47:14;;;;;;;28.07;25.67;;;10.90;78.40;;;;;;5033094;28;20550;-76
2022/04/24 04:49:40;;;;;;;25.00;22.57;;;10.70;79.70;;;;;;5032510;28;20231;-77
2022/04/24 04:52:05;;;;;;;17.47;16.57;;;10.60;81.60;;;;;;5016612;28;20260;-77
2022/04/24 04:54:31;;;;;;;15.80;15.00;;;10.40;70.30;;;;;;5033486;28;20180;-76
2022/04/24 04:56:57;;;;;;;14.67;13.97;;;10.40;72.00;;;;;;5034457;28;20181;-76
2022/04/24 04:59:22;;;;;;;12.83;12.23;;;10.00;68.10;;;;;;5034261;28;20188;-77
2022/04/24 05:01:48;;;;;;;12.30;11.80;;;9.90;73.80;;;;;;5032874;28;20208;-76
2022/04/24 05:04:13;;;;;;;11.37;10.97;;;9.70;74.70;;;;;;5032948;28;20205;-77
2022/04/24 05:06:39;;;;;;;11.43;10.83;;;9.60;77.50;;;;;;5032450;28;20184;-76
2022/04/24 05:09:05;;;;;;;10.30;9.90;;;9.50;77.40;;;;;;5031922;28;20708;-88
2022/04/24 05:11:31;;;;;;;10.60;10.10;;;9.50;80.20;;;;;;5032338;28;20180;-88
2022/04/24 05:13:57;;;;;;;10.20;9.90;;;9.50;82.30;;;;;;5032293;28;20953;-86
2022/04/24 05:16:22;;;;;;;10.10;9.80;;;9.50;78.50;;;;;;5032542;28;20459;-84
2022/04/24 05:18:48;;;;;;;10.50;10.20;;;9.40;78.30;;;;;;5031756;28;20458;-84
2022/04/24 05:21:16;;;;;;;10.43;10.03;;;9.40;74.20;;;;;;5031926;28;20689;-84
2022/04/24 05:23:45;;;;;;;10.20;9.87;;;9.30;73.90;;;;;;5031882;28;20208;-87
2022/04/24 05:26:14;;;;;;;10.63;10.23;;;9.30;73.30;;;;;;5031925;28;20417;-86
2022/04/24 05:28:40;;;;;;;9.97;9.57;;;9.20;75.20;;;;;;5031860;28;20451;-86
2022/04/24 05:31:05;;;;;;;9.47;9.17;;;9.20;78.60;;;;;;5013792;28;20454;-86
2022/04/24 05:33:32;;;;;;;8.87;8.57;;;9.20;80.40;;;;;;5031911;28;20258;-86
2022/04/24 05:35:57;;;;;;;9.27;8.87;;;9.20;79.60;;;;;;5031603;28;20573;-86
2022/04/24 05:38:23;;;;;;;9.23;8.87;;;9.20;80.10;;;;;;5032001;28;20514;-85
2022/04/24 05:40:49;;;;;;;9.87;9.47;;;9.10;76.80;;;;;;5031482;28;20187;-86
2022/04/24 05:43:15;;;;;;;9.27;9.00;;;9.10;79.40;;;;;;5030741;28;20207;-86
2022/04/24 05:45:40;;;;;;;9.60;9.30;;;9.00;78.10;;;;;;5029953;28;20185;-85
2022/04/24 05:48:06;;;;;;;9.90;9.60;;;9.00;79.90;;;;;;5027290;28;20990;-85
2022/04/24 05:50:33;;;;;;;9.70;9.40;;;9.00;78.20;;;;;;5030878;28;20180;-85
2022/04/24 05:52:59;;;;;;;9.90;9.50;;;9.00;77.80;;;;;;5019606;28;20431;-86
2022/04/24 05:55:25;;;;;;;9.40;9.10;;;9.00;78.00;;;;;;5023547;28;20510;-86
2022/04/24 05:57:52;;;;;;;8.03;7.80;;;9.00;81.10;;;;;;5013631;28;20428;-76
2022/04/24 06:00:19;;;;;;;8.73;8.47;;;8.90;81.00;;;;;;5029431;28;20465;-76
2022/04/24 06:02:45;;;;;;;8.70;8.40;;;8.90;81.20;;;;;;5031565;28;20501;-77
2022/04/24 06:05:10;;;;;;;8.90;8.70;;;8.90;82.40;;;;;;5031732;28;20427;-77
2022/04/24 06:07:37;;;;;;;8.23;8.03;;;8.90;80.10;;;;;;5032005;28;20210;-76
2022/04/24 06:10:06;;;;;;;8.07;7.87;;;8.90;80.90;;;;;;5032224;28;20208;-77
2022/04/24 06:12:42;;;;;;;8.13;7.93;;;8.80;82.40;;;;;;5032034;28;20420;-76
2022/04/24 06:15:13;;;;;;;8.37;8.10;;;8.80;84.80;;;;;;5032116;28;20447;-76
2022/04/24 06:17:39;;;;;;;8.13;7.83;;;8.80;85.80;;;;;;5032033;28;20759;-76
2022/04/24 06:20:05;;;;;;;8.80;8.50;;;8.70;82.70;;;;;;5011798;28;20419;-76
2022/04/24 06:22:41;;;;;;;8.73;8.43;;;8.70;84.10;;;;;;5030814;28;20187;-76
2022/04/24 06:25:07;;;;;;;8.10;7.90;;;8.80;84.00;;;;;;5029325;28;20939;-76
2022/04/24 06:27:33;;;;;;;7.93;7.73;;;8.70;83.60;;;;;;5033390;28;20419;-76
2022/04/24 06:29:59;;;;;;;7.13;6.93;;;8.70;86.70;;;;;;5031630;28;20419;-76
2022/04/24 06:32:28;;;;;;;7.50;7.30;;;8.70;88.60;;;;;;5031917;28;20234;-76
2022/04/24 06:34:54;;;;;;;8.30;8.00;;;8.70;86.90;;;;;;5031403;28;20419;-76
2022/04/24 06:37:20;;;;;;;8.30;8.10;;;8.70;86.40;;;;;;5015174;28;20430;-76
2022/04/24 06:39:45;;;;;;;7.90;7.70;;;8.70;85.30;;;;;;5031456;28;20185;-75
2022/04/24 06:42:11;;;;;;;7.70;7.50;;;8.70;84.10;;;;;;5031425;28;20192;-75
2022/04/24 06:44:36;;;;;;;7.70;7.50;;;8.80;86.30;;;;;;5030988;28;20196;-76
2022/04/24 06:47:03;;;;;;;7.93;7.73;;;8.80;83.60;;;;;;5031629;28;20176;-76
2022/04/24 06:49:32;;;;;;;7.20;7.00;;;8.80;86.90;;;;;;5031638;28;20187;-77
2022/04/24 06:51:57;;;;;;;7.80;7.50;;;8.80;90.70;;;;;;5030849;28;20923;-77
2022/04/24 06:54:23;;;;;;;8.57;8.33;;;8.90;89.80;;;;;;5031406;28;20511;-77
2022/04/24 06:56:49;;;;;;;8.20;8.00;;;8.80;87.00;;;;;;5030749;28;20187;-75
2022/04/24 06:59:15;;;;;;;7.87;7.57;;;8.80;88.40;;;;;;5030253;28;20181;-76
2022/04/24 07:01:41;;;;;;;7.83;7.63;;;8.80;89.70;;;;;;5029714;28;20180;-76
2022/04/24 07:04:06;;;;;;;6.83;6.63;;;8.90;87.80;;;;;;5030577;28;20262;-76
2022/04/24 07:06:32;;;;;;;6.97;6.77;;;8.90;89.20;;;;;;5030626;28;20181;-76
2022/04/24 07:08:58;;;;;;;7.37;7.17;;;8.90;90.30;;;;;;5028198;28;20466;-77
2022/04/24 07:11:23;;;;;;;9.07;8.77;;;9.00;90.30;;;;;;5030938;28;20558;-77
2022/04/24 07:13:49;;;;;;;8.00;7.80;;;9.00;84.90;;;;;;5013748;28;20191;-74
2022/04/24 07:16:14;;;;;;;7.50;7.30;;;9.00;88.50;;;;;;5014310;28;20181;-76
2022/04/24 07:18:40;;;;;;;10.63;10.10;;;9.00;90.50;;;;;;5031165;28;20191;-75
2022/04/24 07:21:06;;;;;;;7.00;6.80;;;9.00;91.00;;;;;;5031002;28;20537;-75
2022/04/24 07:23:32;;;;;;;7.60;7.40;;;9.00;91.30;;;;;;5031847;28;20200;-87
2022/04/24 07:25:58;;;;;;;7.90;7.70;;;9.00;91.10;;;;;;5031778;28;20177;-87
2022/04/24 07:28:24;;;;;;;7.90;7.60;;;9.10;91.30;;;;;;5032524;28;20239;-87
2022/04/24 07:30:50;;;;;;;7.40;7.20;;;9.10;92.20;;;;;;5032135;28;20419;-77
2022/04/24 07:33:16;;;;;;;7.90;7.50;;;9.20;91.80;;;;;;5031380;28;20419;-77
2022/04/24 07:35:45;;;;;;;7.50;7.30;;;9.20;91.20;;;;;;5030693;28;20184;-78
2022/04/24 07:38:10;;;;;;;7.53;7.33;;;9.20;91.90;;;;;;5030969;28;20272;-77
2022/04/24 07:40:41;;;;;;;8.40;8.13;;;9.10;91.90;;;;;;5030737;28;20424;-76
2022/04/24 07:43:11;;;;;;;8.57;8.27;;;9.10;91.90;;;;;;5030311;28;20831;-76
2022/04/24 07:45:46;;;;;;;8.00;7.70;;;9.10;91.20;;;;;;5022238;28;20939;-76
2022/04/24 07:48:13;;;;;;;7.27;7.07;;;9.10;90.90;;;;;;5010523;28;20416;-76
2022/04/24 07:50:44;;;;;;;7.30;7.10;;;9.20;91.60;;;;;;5010563;28;20985;-76
2022/04/24 07:53:11;;;;;;;7.80;7.50;;;9.20;92.30;;;;;;5010338;28;20993;-76
2022/04/24 07:55:37;;;;;;;7.33;7.13;;;9.20;91.30;;;;;;5014226;28;20789;-76
2022/04/24 07:58:03;;;;;;;7.90;7.70;;;9.30;90.70;;;;;;5014270;28;20490;-76
2022/04/24 08:00:31;;;;;;;7.33;7.13;;;9.20;90.40;;;;;;5014428;28;20483;-76
2022/04/24 08:03:02;;;;;;;7.30;7.10;;;9.30;90.20;;;;;;5015510;28;20479;-76
2022/04/24 08:05:33;;;;;;;7.30;7.00;;;9.20;90.70;;;;;;5014136;28;20428;-76
2022/04/24 08:08:01;;;;;;;7.13;6.83;;;9.30;90.90;;;;;;5020027;28;20424;-75
2022/04/24 08:10:29;;;;;;;6.87;6.63;;;9.20;91.80;;;;;;5033927;28;20423;-75
2022/04/24 08:12:55;;;;;;;6.77;6.50;;;9.30;91.70;;;;;;5028207;28;20818;-76
2022/04/24 08:15:21;;;;;;;6.23;6.10;;;9.20;91.20;;;;;;5033790;28;20407;-76
2022/04/24 08:17:47;;;;;;;6.80;6.60;;;9.20;91.50;;;;;;5034259;28;20426;-76
2022/04/24 08:20:15;;;;;;;7.20;6.90;;;9.20;92.00;;;;;;5034593;28;20423;-76
2022/04/24 08:22:45;;;;;;;6.07;5.90;;;9.30;91.70;;;;;;5034638;28;20169;-77
2022/04/24 08:25:14;;;;;;;6.10;5.90;;;9.30;91.50;;;;;;5035367;28;20416;-87
2022/04/24 08:27:40;;;;;;;6.50;6.30;;;9.30;92.10;;;;;;5034405;28;20419;-87
2022/04/24 08:30:08;;;;;;;5.93;5.83;;;9.30;92.10;;;;;;5031279;28;20916;-86
2022/04/24 08:32:35;;;;;;;6.50;6.30;;;9.30;92.10;;;;;;5017420;28;20415;-87
2022/04/24 08:35:01;;;;;;;6.70;6.50;;;9.30;92.50;;;;;;5033863;28;20426;-87
2022/04/24 08:37:26;;;;;;;7.03;6.80;;;9.30;92.90;;;;;;5033589;28;20415;-87
2022/04/24 08:39:53;;;;;;;7.53;7.27;;;9.30;93.10;;;;;;5023694;28;20788;-87
2022/04/24 08:42:21;;;;;;;7.50;7.30;;;9.30;93.80;;;;;;5021031;28;20178;-88
2022/04/24 08:44:56;;;;;;;7.67;7.27;;;9.30;93.80;;;;;;5031252;28;20463;-85
2022/04/24 08:47:24;;;;;;;8.07;7.77;;;9.40;93.50;;;;;;5032246;28;20411;-85
2022/04/24 08:49:53;;;;;;;9.60;9.30;;;9.30;93.60;;;;;;5015751;28;20415;-85
2022/04/24 08:52:20;;;;;;;9.87;9.47;;;9.30;92.50;;;;;;5032338;28;20423;-85
2022/04/24 08:54:46;;;;;;;9.80;9.40;;;9.40;93.10;;;;;;5032396;28;20419;-84
2022/04/24 08:57:12;;;;;;;10.73;10.33;;;9.40;93.50;;;;;;5033058;28;20816;-85
2022/04/24 08:59:38;;;;;;;11.30;10.90;;;9.50;94.00;;;;;;5032578;28;20419;-86
2022/04/24 09:02:05;;;;;;;12.17;11.77;;;9.40;94.60;;;;;;5032973;28;20467;-84
2022/04/24 09:04:33;;;;;;;12.30;11.90;;;9.50;94.00;;;;;;5032043;28;20478;-86
2022/04/24 09:07:00;;;;;;;12.50;12.10;;;9.50;93.00;;;;;;5032040;28;20589;-85
2022/04/24 09:09:26;;;;;;;12.57;12.17;;;9.40;92.70;;;;;;5029034;28;20420;-85
2022/04/24 09:11:52;;;;;;;11.90;11.37;;;9.50;93.70;;;;;;4996251;28;20416;-85
2022/04/24 09:14:19;;;;;;;14.50;14.00;;;9.40;91.50;;;;;;5012733;28;20435;-86
2022/04/24 09:16:49;;;;;;;13.87;13.40;;;9.40;92.60;;;;;;5012421;28;20551;-86
2022/04/24 09:19:21;;;;;;;13.67;13.17;;;9.50;92.60;;;;;;4996095;28;21007;-85
2022/04/24 09:21:52;;;;;;;12.70;12.20;;;9.50;93.50;;;;;;4995623;28;20529;-86
2022/04/24 09:24:18;;;;;;;12.60;12.10;;;9.50;93.60;;;;;;5012166;28;20464;-85
2022/04/24 09:26:56;;;;;;;13.50;13.03;;;9.50;94.10;;;;;;4995669;28;20439;-85
2022/04/24 09:29:22;;;;;;;14.03;13.53;;;9.60;93.90;;;;;;5012475;28;20504;-86
2022/04/24 09:31:50;;;;;;;13.00;12.60;;;9.60;91.90;;;;;;5021236;28;20454;-86
2022/04/24 09:34:17;;;;;;;14.63;14.03;;;9.70;92.20;;;;;;5032295;28;20423;-86
2022/04/24 09:37:06;;;;;;;13.93;13.43;;;9.60;92.10;;;;;;5033778;28;20943;-86
2022/04/24 09:39:37;;;;;;;13.50;13.00;;;9.60;92.10;;;;;;5032576;28;20411;-86
2022/04/24 09:42:08;;;;;;;13.97;13.47;;;9.60;91.60;;;;;;5032569;28;20430;-86
2022/04/24 09:44:38;;;;;;;13.43;12.93;;;9.60;90.80;;;;;;5033409;28;20814;-87
2022/04/24 09:47:05;;;;;;;14.73;14.13;;;9.70;91.10;;;;;;5028284;28;20407;-85
2022/04/24 09:49:38;;;;;;;13.67;13.07;;;9.70;92.50;;;;;;5031208;28;20435;-86
2022/04/24 09:52:12;;;;;;;15.70;14.90;;;9.70;94.20;;;;;;5031199;28;20416;-87
2022/04/24 09:54:42;;;;;;;13.80;13.30;;;9.70;94.80;;;;;;5031049;28;20430;-87
2022/04/24 09:57:13;;;;;;;12.77;12.17;;;9.80;94.10;;;;;;5032358;28;20422;-87
2022/04/24 09:59:44;;;;;;;12.80;12.20;;;9.90;93.60;;;;;;5032553;28;20912;-87
2022/04/24 10:02:15;;;;;;;12.87;12.37;;;9.90;93.70;;;;;;5033714;28;20407;-85
2022/04/24 10:04:42;;;;;;;12.90;12.40;;;10.00;93.20;;;;;;5033822;28;20884;-87
2022/04/24 10:07:09;;;;;;;13.00;12.50;;;10.00;93.60;;;;;;5032096;28;20485;-86
2022/04/24 10:09:57;;;;;;;17.90;16.97;;;9.90;94.20;;;;;;5015632;28;20830;-86
2022/04/24 10:12:24;;;;;;;19.30;18.50;;;10.00;93.60;;;;;;5032351;28;20919;-85
2022/04/24 10:15:11;;;;;;;19.13;18.43;;;9.90;93.60;;;;;;5015161;28;20538;-86
2022/04/24 10:18:16;;;;;;;19.20;18.30;;;10.00;92.90;;;;;;5031125;28;20423;-85
2022/04/24 10:21:18;;;;;;;18.27;17.57;;;9.90;94.30;;;;;;4988343;28;20431;-85
2022/04/24 10:23:43;;;;;;;17.37;16.77;;;9.90;94.90;;;;;;5031576;28;20458;-87
2022/04/24 10:26:20;;;;;;;18.50;17.70;;;10.00;93.30;;;;;;5031908;28;20510;-88
2022/04/24 10:28:47;;;;;;;18.10;17.40;;;10.00;94.40;;;;;;5031719;28;20185;-85
2022/04/24 10:31:13;;;;;;;19.90;19.10;;;10.00;93.60;;;;;;5031601;28;20423;-85
2022/04/24 10:33:51;;;;;;;19.53;18.53;;;10.10;93.30;;;;;;5030990;28;20837;-85
2022/04/24 10:36:17;;;;;;;20.43;19.43;;;10.10;93.10;;;;;;5031187;28;20823;-87
2022/04/24 10:38:48;;;;;;;19.73;18.93;;;10.10;91.90;;;;;;5031218;28;20887;-84
2022/04/24 10:41:25;;;;;;;18.40;17.70;;;10.00;93.40;;;;;;5031332;28;20442;-86
2022/04/24 10:43:57;;;;;;;19.90;19.10;;;10.00;92.50;;;;;;5030336;28;20458;-86
2022/04/24 10:46:27;;;;;;;21.60;20.70;;;10.00;91.80;;;;;;5031699;28;20431;-87
2022/04/24 10:48:53;;;;;;;20.03;19.13;;;9.90;91.00;;;;;;5015332;28;20518;-86
2022/04/24 10:51:30;;;;;;;19.90;19.10;;;9.90;92.30;;;;;;5015270;28;20412;-86
2022/04/24 10:54:21;;;;;;;18.63;17.83;;;10.00;93.20;;;;;;5014876;28;20422;-86
2022/04/24 10:56:49;;;;;;;20.20;19.40;;;10.10;93.80;;;;;;5031319;28;20898;-86
2022/04/24 10:59:20;;;;;;;18.97;18.23;;;10.00;92.00;;;;;;5030732;28;20430;-77
2022/04/24 11:01:51;;;;;;;18.27;17.40;;;9.90;93.00;;;;;;5030663;28;20760;-78
2022/04/24 11:04:19;;;;;;;19.97;19.17;;;10.10;93.20;;;;;;5014001;28;20467;-78
2022/04/24 11:06:54;;;;;;;20.00;19.20;;;10.10;93.50;;;;;;5031997;28;20415;-78
2022/04/24 11:09:21;;;;;;;18.33;17.53;;;10.00;92.90;;;;;;5014163;28;20419;-77
2022/04/24 11:11:49;;;;;;;19.13;18.33;;;10.10;93.10;;;;;;5030635;28;20781;-77
2022/04/24 11:14:25;;;;;;;18.70;18.00;;;10.10;92.60;;;;;;5030542;28;20481;-78
2022/04/24 11:16:57;;;;;;;17.80;17.10;;;10.10;93.30;;;;;;5030652;28;20422;-77
2022/04/24 11:19:27;;;;;;;18.70;17.90;;;10.10;93.90;;;;;;5030055;28;20423;-77
2022/04/24 11:21:56;;;;;;;20.47;19.40;;;10.10;94.50;;;;;;5030218;28;20899;-78
2022/04/24 11:24:22;;;;;;;20.40;19.60;;;10.20;95.00;;;;;;5034622;28;20512;-80
2022/04/24 11:26:48;;;;;;;19.80;19.00;;;10.20;92.60;;;;;;5030457;28;20981;-84
2022/04/24 11:29:14;;;;;;;19.57;18.77;;;10.10;92.90;;;;;;5028574;28;20430;-87
2022/04/24 11:31:48;;;;;;;21.00;20.17;;;10.20;92.20;;;;;;5029717;28;20502;-87
2022/04/24 11:34:18;;;;;;;19.40;18.50;;;10.10;91.80;;;;;;5028333;28;20180;-87
2022/04/24 11:36:44;;;;;;;18.97;18.27;;;10.20;92.20;;;;;;5028233;28;20423;-87
2022/04/24 11:39:09;;;;;;;19.47;18.67;;;10.20;92.30;;;;;;5030049;28;21000;-88
2022/04/24 11:41:36;;;;;;;17.63;16.93;;;10.30;92.10;;;;;;5029430;28;20425;-88
2022/04/24 11:44:02;;;;;;;21.20;20.40;;;10.30;92.50;;;;;;5030236;28;20713;-87
2022/04/24 11:51:59;;;;;;;21.40;20.50;;;10.20;88.00;;;;;;5031756;28;20409;-87
2022/04/24 11:54:25;;;;;;;20.60;19.80;;;10.20;86.50;;;;;;5030727;28;20423;-87
2022/04/24 11:56:51;;;;;;;20.40;19.60;;;10.30;90.30;;;;;;5030131;28;20762;-87
2022/04/24 11:59:22;;;;;;;20.47;19.67;;;10.20;90.00;;;;;;5029673;28;20538;-87
2022/04/24 12:01:58;;;;;;;22.07;20.90;;;10.20;91.30;;;;;;5013758;28;20489;-86
2022/04/24 12:04:31;;;;;;;21.10;20.30;;;10.20;90.90;;;;;;5029953;28;20490;-87
2022/04/24 12:07:14;;;;;;;19.10;18.33;;;10.30;91.40;;;;;;5013773;28;20424;-87
2022/04/24 12:09:44;;;;;;;18.07;17.37;;;10.30;91.50;;;;;;5029604;28;20498;-87
2022/04/24 12:12:14;;;;;;;18.67;17.97;;;10.40;91.90;;;;;;5029745;28;20997;-86
2022/04/24 12:14:48;;;;;;;20.80;19.90;;;10.30;91.40;;;;;;5029461;28;20415;-77
2022/04/24 12:17:14;;;;;;;21.20;20.37;;;10.30;90.00;;;;;;5028782;28;20431;-77
2022/04/24 12:19:52;;;;;;;18.73;18.03;;;10.30;91.40;;;;;;5028788;28;20468;-77
2022/04/24 12:24:46;;;;;;;20.83;19.93;;;10.40;92.20;;;;;;5056100;28;20580;-87
2022/04/24 12:27:17;;;;;;;23.80;22.80;;;10.30;88.50;;;;;;5050952;28;20964;-87
2022/04/24 12:29:48;;;;;;;22.00;21.10;;;10.30;87.90;;;;;;5050721;28;20440;-87
2022/04/24 12:32:14;;;;;;;21.97;21.07;;;10.30;90.30;;;;;;5051059;28;20414;-87
2022/04/24 12:34:41;;;;;;;19.33;18.63;;;10.30;92.80;;;;;;5058968;22;20796;-87
2022/04/24 12:37:14;;;;;;;20.70;19.70;;;10.40;93.00;;;;;;5027129;28;20857;-78
2022/04/24 12:45:43;;;;;;;21.53;20.63;;;10.50;91.70;;;;;;5037552;23;20906;-78
2022/04/24 12:48:19;;;;;;;19.47;18.50;;;10.60;91.70;;;;;;5033931;28;20446;-79
2022/04/24 12:51:21;;;;;;;23.70;22.80;;;10.60;92.80;;;;;;5032827;28;20407;-78
2022/04/24 12:53:51;;;;;;;21.67;20.77;;;10.70;90.00;;;;;;5031110;28;20419;-77